createdAt,value
2018-07-10T00:01:16.709Z,72.50
2018-07-10T00:06:38.430Z,73.70
2018-07-10T00:09:50.200Z,73.40
2018-07-10T00:12:18.715Z,72.90
2018-07-10T00:14:47.232Z,71.80
2018-07-10T00:17:15.849Z,72.20
2018-07-10T00:19:44.393Z,70.50
2018-07-10T00:22:12.836Z,70.60
2018-07-10T00:24:41.335Z,70.00
2018-07-10T00:27:09.774Z,70.20
2018-07-10T00:29:38.349Z,71.60
2018-07-10T00:32:06.832Z,70.90
2018-07-10T00:34:35.321Z,72.20
2018-07-10T00:37:03.809Z,73.90
2018-07-10T00:39:32.334Z,74.10
2018-07-10T00:47:35.074Z,75.20
2018-07-10T00:50:03.498Z,74.40
2018-07-10T00:52:33.649Z,75.20
2018-07-10T00:55:05.867Z,74.50
2018-07-10T00:57:34.385Z,75.10
2018-07-10T01:00:03.230Z,74.80
2018-07-10T01:02:31.653Z,75.20
2018-07-10T01:05:00.068Z,75.90
2018-07-10T01:07:28.522Z,76.50
2018-07-10T01:09:57.200Z,77.70
2018-07-10T01:12:26.011Z,77.70
2018-07-10T01:14:54.631Z,79.00
2018-07-10T01:17:23.167Z,77.60
2018-07-10T01:19:51.697Z,78.50
2018-07-10T01:22:20.166Z,78.00
2018-07-10T01:24:48.698Z,77.70
2018-07-10T01:29:48.822Z,76.50
2018-07-10T01:32:17.651Z,76.40
2018-07-10T01:34:46.024Z,77.20
2018-07-10T01:37:14.472Z,75.70
2018-07-10T01:39:42.957Z,75.70
2018-07-10T01:42:11.442Z,75.60
2018-07-10T01:44:39.945Z,75.60
2018-07-10T01:47:08.525Z,75.40
2018-07-10T01:49:36.959Z,75.90
2018-07-10T01:52:05.397Z,75.40
2018-07-10T01:54:33.973Z,77.00
2018-07-10T01:57:02.509Z,79.40
2018-07-10T01:59:31.795Z,80.70
2018-07-10T02:02:00.239Z,80.90
2018-07-10T02:04:28.656Z,82.40
2018-07-10T02:06:57.069Z,81.70
2018-07-10T02:09:25.621Z,81.90
2018-07-10T02:11:54.646Z,81.40
2018-07-10T02:14:23.363Z,81.80
2018-07-10T02:16:52.064Z,80.40
2018-07-10T02:19:21.822Z,79.10
2018-07-10T02:21:51.160Z,77.90
2018-07-10T02:24:35.397Z,77.90
2018-07-10T02:27:11.910Z,78.20
2018-07-10T02:29:44.788Z,78.10
2018-07-10T02:32:14.128Z,79.50
2018-07-10T02:35:28.904Z,79.10
2018-07-10T02:38:17.233Z,77.50
2018-07-10T02:43:23.932Z,78.20
2018-07-10T02:45:52.955Z,77.70
2018-07-10T02:48:21.879Z,77.50
2018-07-10T02:50:52.855Z,77.00
2018-07-10T02:53:21.599Z,76.60
2018-07-10T02:55:50.847Z,76.00
2018-07-10T02:58:20.052Z,75.00
2018-07-10T03:00:48.851Z,74.00
2018-07-10T03:03:17.475Z,75.60
2018-07-10T03:05:52.361Z,73.60
2018-07-10T03:11:12.927Z,73.60
2018-07-10T03:13:42.569Z,73.80
2018-07-10T03:16:11.088Z,71.80
2018-07-10T03:21:20.387Z,71.30
2018-07-10T03:23:49.977Z,70.40
2018-07-10T03:26:18.455Z,70.90
2018-07-10T03:28:46.955Z,71.60
2018-07-10T03:31:15.534Z,70.20
2018-07-10T03:33:44.872Z,69.30
2018-07-10T03:36:15.941Z,69.00
2018-07-10T03:38:50.245Z,70.00
2018-07-10T03:41:18.570Z,68.40
2018-07-10T03:43:47.358Z,65.50
2018-07-10T03:46:15.908Z,65.50
2018-07-10T03:48:44.403Z,64.80
2018-07-10T03:51:17.648Z,64.40
2018-07-10T03:53:46.467Z,63.10
2018-07-10T03:58:43.663Z,62.40
2018-07-10T04:01:12.107Z,62.30
2018-07-10T04:03:40.611Z,61.50
2018-07-10T04:06:09.006Z,61.60
2018-07-10T04:08:38.174Z,62.00
2018-07-10T04:11:06.868Z,62.80
2018-07-10T04:13:36.621Z,64.00
2018-07-10T04:16:05.123Z,63.20
2018-07-10T04:18:35.583Z,61.80
2018-07-10T04:21:17.931Z,62.50
2018-07-10T04:24:21.535Z,62.60
2018-07-10T04:27:01.970Z,64.30
2018-07-10T04:31:41.700Z,64.70
2018-07-10T04:34:10.093Z,64.30
2018-07-10T04:36:38.542Z,65.10
2018-07-10T04:39:06.990Z,64.80
2018-07-10T04:41:37.855Z,64.50
2018-07-10T04:44:11.787Z,64.30
2018-07-10T04:46:43.270Z,64.40
2018-07-10T04:49:22.319Z,65.60
2018-07-10T04:52:00.218Z,65.50
2018-07-10T04:54:34.994Z,66.40
2018-07-10T04:57:07.319Z,67.60
2018-07-10T04:59:43.821Z,67.60
2018-07-10T05:02:21.251Z,67.80
2018-07-10T05:05:08.505Z,68.10
2018-07-10T05:13:23.111Z,68.20
2018-07-10T05:16:00.830Z,69.00
2018-07-10T05:18:29.843Z,69.80
2018-07-10T05:21:02.400Z,70.20
2018-07-10T05:23:31.111Z,70.20
2018-07-10T05:26:00.751Z,67.90
2018-07-10T05:28:29.185Z,66.90
2018-07-10T05:31:00.527Z,65.80
2018-07-10T05:33:29.163Z,66.50
2018-07-10T05:35:58.002Z,66.20
2018-07-10T05:38:40.945Z,75.70
2018-07-10T05:41:14.188Z,69.80
2018-07-10T05:43:49.409Z,69.70
2018-07-10T05:46:20.076Z,69.40
2018-07-10T05:48:54.449Z,70.10
2018-07-10T05:51:23.548Z,69.90
2018-07-10T05:53:52.024Z,65.80
2018-07-10T05:56:20.391Z,65.90
2018-07-10T05:58:49.053Z,66.10
2018-07-10T06:01:22.722Z,65.90
2018-07-10T06:03:51.341Z,66.20
2018-07-10T06:06:20.060Z,66.00
2018-07-10T06:08:48.449Z,70.00
2018-07-10T06:11:16.806Z,69.00
2018-07-10T06:13:45.170Z,66.50
2018-07-10T06:18:42.252Z,66.50
2018-07-10T06:21:10.691Z,65.40
2018-07-10T06:23:42.127Z,65.60
2018-07-10T06:26:11.093Z,64.40
2018-07-10T06:28:44.173Z,64.60
2018-07-10T06:31:13.905Z,66.10
2018-07-10T06:33:50.779Z,66.60
2018-07-10T06:36:32.648Z,67.40
2018-07-10T06:39:13.712Z,68.10
2018-07-10T06:44:15.233Z,69.70
2018-07-10T06:49:27.736Z,69.50
2018-07-10T06:52:04.680Z,71.10
2018-07-10T06:54:47.259Z,71.40
2018-07-10T06:57:15.842Z,70.90
2018-07-10T06:59:44.218Z,70.50
2018-07-10T07:02:12.727Z,69.60
2018-07-10T07:04:41.233Z,68.90
2018-07-10T07:07:09.663Z,67.90
2018-07-10T07:09:38.525Z,68.10
2018-07-10T07:12:06.849Z,69.20
2018-07-10T07:14:35.263Z,68.30
2018-07-10T07:17:03.622Z,68.20
2018-07-10T07:19:31.957Z,68.10
2018-07-10T07:22:00.434Z,69.50
2018-07-10T07:24:28.772Z,68.90
2018-07-10T07:26:57.148Z,70.60
2018-07-10T07:29:25.566Z,70.90
2018-07-10T07:31:54.372Z,70.30
2018-07-10T07:34:22.749Z,70.50
2018-07-10T07:36:51.091Z,71.20
2018-07-10T07:39:19.515Z,70.70
2018-07-10T07:41:48.306Z,68.80
2018-07-10T07:44:16.765Z,69.50
2018-07-10T07:46:45.754Z,68.10
2018-07-10T07:49:14.154Z,67.50
2018-07-10T07:51:42.521Z,67.80
2018-07-10T07:54:10.997Z,68.40
2018-07-10T07:56:39.410Z,68.10
2018-07-10T07:59:07.863Z,69.40
2018-07-10T08:01:36.210Z,69.90
2018-07-10T08:04:04.649Z,70.60
2018-07-10T08:06:33.056Z,71.50
2018-07-10T08:09:02.107Z,71.50
2018-07-10T08:11:31.388Z,71.70
2018-07-10T08:14:06.623Z,71.80
2018-07-10T08:16:36.596Z,71.80
2018-07-10T08:19:05.809Z,71.60
2018-07-10T08:21:34.420Z,70.70
2018-07-10T08:26:35.969Z,71.40
2018-07-10T08:29:04.471Z,71.80
2018-07-10T08:31:32.832Z,72.00
2018-07-10T08:34:01.282Z,72.10
2018-07-10T08:36:29.622Z,72.70
2018-07-10T08:38:58.414Z,72.90
2018-07-10T08:41:26.816Z,72.20
2018-07-10T08:43:55.710Z,71.80
2018-07-10T08:46:29.563Z,72.30
2018-07-10T08:48:58.122Z,71.10
2018-07-10T08:51:26.575Z,71.30
2018-07-10T08:53:55.317Z,71.00
2018-07-10T08:56:23.883Z,71.10
2018-07-10T08:58:52.299Z,70.40
2018-07-10T09:01:20.695Z,69.60
2018-07-10T09:03:49.266Z,69.50
2018-07-10T09:06:17.977Z,69.70
2018-07-10T09:08:46.942Z,70.90
2018-07-10T09:11:15.384Z,70.80
2018-07-10T09:13:43.836Z,70.50
2018-07-10T09:16:12.258Z,70.30
2018-07-10T09:18:40.655Z,71.30
2018-07-10T09:21:09.327Z,71.80
2018-07-10T09:26:06.517Z,72.80
2018-07-10T09:28:36.960Z,73.50
2018-07-10T09:31:06.265Z,74.10
2018-07-10T09:33:35.230Z,74.60
2018-07-10T09:36:04.579Z,74.50
2018-07-10T09:38:34.558Z,75.30
2018-07-10T09:41:03.175Z,75.10
2018-07-10T09:43:31.646Z,76.40
2018-07-10T09:46:00.113Z,77.00
2018-07-10T09:48:28.470Z,76.80
2018-07-10T09:50:56.870Z,76.40
2018-07-10T09:53:25.278Z,75.70
2018-07-10T09:58:22.389Z,75.90
2018-07-10T10:03:25.992Z,75.70
2018-07-10T10:05:54.410Z,76.10
2018-07-10T10:08:22.886Z,75.70
2018-07-10T10:10:51.787Z,76.00
2018-07-10T10:13:20.245Z,76.80
2018-07-10T10:15:49.139Z,77.40
2018-07-10T10:18:17.723Z,77.80
2018-07-10T10:20:46.236Z,77.00
2018-07-10T10:23:15.360Z,76.50
2018-07-10T10:25:52.217Z,76.30
2018-07-10T10:28:24.466Z,76.80
2018-07-10T10:30:53.020Z,77.40
2018-07-10T10:33:21.450Z,77.90
2018-07-10T10:35:50.036Z,79.20
2018-07-10T10:38:18.519Z,79.60
2018-07-10T10:40:49.063Z,80.50
2018-07-10T10:43:17.471Z,80.40
2018-07-10T10:45:45.978Z,80.30
2018-07-10T10:48:15.315Z,81.40
2018-07-10T10:50:49.440Z,81.50
2018-07-10T10:53:18.709Z,82.30
2018-07-10T10:55:47.170Z,83.00
2018-07-10T10:58:15.907Z,84.00
2018-07-10T11:00:44.351Z,83.70
2018-07-10T11:05:41.427Z,84.20
2018-07-10T11:08:09.884Z,83.70
2018-07-10T11:10:38.419Z,84.20
2018-07-10T11:13:07.010Z,84.70
2018-07-10T11:15:41.565Z,84.90
2018-07-10T11:18:12.126Z,84.60
2018-07-10T11:20:50.301Z,84.00
2018-07-10T11:23:59.201Z,82.90
2018-07-10T11:26:40.849Z,83.20
2018-07-10T11:29:10.311Z,83.40
2018-07-10T11:31:39.143Z,84.20
2018-07-10T11:34:08.037Z,83.00
2018-07-10T11:36:37.140Z,82.30
2018-07-10T11:39:15.803Z,81.90
2018-07-10T11:41:50.535Z,81.90
2018-07-10T11:44:19.088Z,81.50
2018-07-10T11:46:48.175Z,81.40
2018-07-10T11:49:16.677Z,81.10
2018-07-10T11:51:45.440Z,81.10
2018-07-10T11:54:13.992Z,81.40
2018-07-10T11:56:42.520Z,81.50
2018-07-10T11:59:11.007Z,82.10
2018-07-10T12:04:07.654Z,80.50
2018-07-10T12:06:45.764Z,82.50
2018-07-10T12:09:14.223Z,83.80
2018-07-10T12:11:43.056Z,83.30
2018-07-10T12:14:12.430Z,83.30
2018-07-10T12:16:40.820Z,82.40
2018-07-10T12:19:09.150Z,82.60
2018-07-10T12:21:37.562Z,82.20
2018-07-10T12:24:06.998Z,82.70
2018-07-10T12:26:36.260Z,82.60
2018-07-10T12:29:04.640Z,83.80
2018-07-10T12:31:33.061Z,83.90
2018-07-10T12:34:01.457Z,84.00
2018-07-10T12:36:30.276Z,84.20
2018-07-10T12:38:58.714Z,84.70
2018-07-10T12:41:27.213Z,85.00
2018-07-10T12:43:56.534Z,84.30
2018-07-10T12:46:25.078Z,84.30
2018-07-10T12:48:53.457Z,84.30
2018-07-10T12:51:21.856Z,84.60
2018-07-10T12:53:50.277Z,84.50
2018-07-10T12:56:18.856Z,84.50
2018-07-10T12:58:47.239Z,84.20
2018-07-10T13:01:16.399Z,84.50
2018-07-10T13:03:44.789Z,84.30
2018-07-10T13:06:13.212Z,84.00
2018-07-10T13:08:41.616Z,84.10
2018-07-10T13:11:09.995Z,84.10
2018-07-10T13:13:38.354Z,84.00
2018-07-10T13:16:06.868Z,83.80
2018-07-10T13:18:35.274Z,83.60
2018-07-10T13:21:03.624Z,83.50
2018-07-10T13:23:32.022Z,83.40
2018-07-10T13:26:00.426Z,83.60
2018-07-10T13:28:28.828Z,83.20
2018-07-10T13:30:57.518Z,82.70
2018-07-10T13:33:26.156Z,82.50
2018-07-10T13:35:55.539Z,82.20
2018-07-10T13:38:24.686Z,82.70
2018-07-10T13:40:54.435Z,82.70
2018-07-10T13:43:25.147Z,82.10
2018-07-10T13:45:53.720Z,82.10
2018-07-10T13:48:22.170Z,81.90
2018-07-10T13:50:51.131Z,81.50
2018-07-10T13:53:19.590Z,82.10
2018-07-10T13:55:49.521Z,83.00
2018-07-10T13:58:27.346Z,83.10
2018-07-10T14:01:04.540Z,83.10
2018-07-10T14:03:33.044Z,83.70
2018-07-10T14:06:02.215Z,83.80
2018-07-10T14:08:30.963Z,83.80
2018-07-10T14:10:59.704Z,83.80
2018-07-10T14:13:33.799Z,83.80
2018-07-10T14:16:02.753Z,84.40
2018-07-10T14:18:31.365Z,85.00
2018-07-10T14:21:02.784Z,84.40
2018-07-10T14:23:31.202Z,84.80
2018-07-10T14:25:59.610Z,84.70
2018-07-10T14:28:37.559Z,84.70
2018-07-10T14:31:06.086Z,84.90
2018-07-10T14:33:34.693Z,85.30
2018-07-10T14:36:03.076Z,85.20
2018-07-10T14:38:35.764Z,85.40
2018-07-10T14:41:08.688Z,85.50
2018-07-10T14:43:44.591Z,85.80
2018-07-10T14:46:15.338Z,86.00
2018-07-10T14:48:50.528Z,85.60
2018-07-10T14:53:48.272Z,85.50
2018-07-10T14:56:16.975Z,85.60
2018-07-10T14:58:45.535Z,85.90
2018-07-10T15:01:13.922Z,85.80
2018-07-10T15:03:42.707Z,85.90
2018-07-10T15:06:11.083Z,85.20
2018-07-10T15:08:39.451Z,85.60
2018-07-10T15:11:07.872Z,85.60
2018-07-10T15:13:47.671Z,85.60
2018-07-10T15:16:16.140Z,85.40
2018-07-10T15:18:45.933Z,84.40
2018-07-10T15:21:14.286Z,82.80
2018-07-10T15:23:42.792Z,83.40
2018-07-10T15:26:11.063Z,84.80
2018-07-10T15:28:39.469Z,85.40
2018-07-10T15:31:07.811Z,84.70
2018-07-10T15:33:36.154Z,83.60
2018-07-10T15:36:07.531Z,82.60
2018-07-10T15:38:35.860Z,82.90
2018-07-10T15:41:04.241Z,82.90
2018-07-10T15:43:32.646Z,82.50
2018-07-10T15:46:01.023Z,80.80
2018-07-10T15:48:31.211Z,80.40
2018-07-10T15:50:59.700Z,79.60
2018-07-10T15:53:28.078Z,76.10
2018-07-10T15:55:56.666Z,75.20
2018-07-10T15:58:25.048Z,74.10
2018-07-10T16:00:54.227Z,73.10
2018-07-10T16:03:22.679Z,71.00
2018-07-10T16:05:51.104Z,72.00
2018-07-10T16:08:20.374Z,73.90
2018-07-10T16:10:51.518Z,75.60
2018-07-10T16:13:20.596Z,75.50
2018-07-10T16:15:52.481Z,73.10
2018-07-10T16:18:22.786Z,71.00
2018-07-10T16:20:53.980Z,73.20
2018-07-10T16:23:22.412Z,73.90
2018-07-10T16:25:50.837Z,72.10
2018-07-10T16:28:22.112Z,70.70
2018-07-10T16:30:51.132Z,73.10
2018-07-10T16:33:28.689Z,72.60
2018-07-10T16:36:05.046Z,74.00
2018-07-10T16:38:43.240Z,73.40
2018-07-10T16:41:24.933Z,75.80
2018-07-10T16:43:55.927Z,77.00
2018-07-10T16:46:28.712Z,77.10
2018-07-10T16:49:39.189Z,75.50
2018-07-10T16:52:27.474Z,73.90
2018-07-10T16:54:55.885Z,74.70
2018-07-10T16:57:24.974Z,75.50
2018-07-10T17:01:09.948Z,75.80
2018-07-10T17:03:38.682Z,75.90
2018-07-10T17:06:08.221Z,77.10
2018-07-10T17:08:36.588Z,77.90
2018-07-10T17:11:05.000Z,78.20
2018-07-10T17:13:33.619Z,77.70
2018-07-10T17:16:06.050Z,76.30
2018-07-10T17:18:34.428Z,72.30
2018-07-10T17:21:02.813Z,64.30
2018-07-10T17:23:31.207Z,58.90
2018-07-10T17:26:04.984Z,56.50
2018-07-10T17:28:33.463Z,57.60
2018-07-10T17:31:01.995Z,62.70
2018-07-10T17:33:30.304Z,63.50
2018-07-10T17:38:29.648Z,63.40
2018-07-10T17:40:58.006Z,65.30
2018-07-10T17:43:26.441Z,67.00
2018-07-10T17:45:54.765Z,68.30
2018-07-10T17:48:23.127Z,69.70
2018-07-10T17:53:20.032Z,74.30
2018-07-10T17:55:48.478Z,75.70
2018-07-10T17:58:19.819Z,75.40
2018-07-10T18:00:48.427Z,75.60
2018-07-10T18:03:17.574Z,75.80
2018-07-10T18:05:45.981Z,77.90
2018-07-10T18:08:15.008Z,77.90
2018-07-10T18:10:43.375Z,78.60
2018-07-10T18:13:11.745Z,78.10
2018-07-10T18:15:40.075Z,78.60
2018-07-10T18:18:08.483Z,78.60
2018-07-10T18:20:36.867Z,78.30
2018-07-10T18:23:05.255Z,78.80
2018-07-10T18:25:33.997Z,79.10
2018-07-10T18:28:03.732Z,78.80
2018-07-10T18:30:32.259Z,78.80
2018-07-10T18:33:00.606Z,78.40
2018-07-10T18:35:29.763Z,78.20
2018-07-10T18:37:58.217Z,79.00
2018-07-10T18:40:26.656Z,79.20
2018-07-10T18:42:55.020Z,79.40
2018-07-10T18:45:23.399Z,79.70
2018-07-10T18:47:51.802Z,79.60
2018-07-10T18:50:21.080Z,79.90
2018-07-10T18:52:50.566Z,80.60
2018-07-10T18:55:18.999Z,80.40
2018-07-10T18:57:56.156Z,80.60
2018-07-10T19:00:37.443Z,80.20
2018-07-10T19:03:11.401Z,80.80
2018-07-10T19:05:48.400Z,81.10
2018-07-10T19:08:16.813Z,81.80
2018-07-10T19:10:46.998Z,82.10
2018-07-10T19:13:16.307Z,82.50
2018-07-10T19:15:46.268Z,82.90
2018-07-10T19:18:15.070Z,82.90
2018-07-10T19:20:54.168Z,83.60
2018-07-10T19:23:32.597Z,83.80
2018-07-10T19:26:01.199Z,84.40
2018-07-10T19:28:29.984Z,84.70
2018-07-10T19:31:04.535Z,84.80
2018-07-10T19:33:33.110Z,84.90
2018-07-10T19:36:01.735Z,84.80
2018-07-10T19:38:31.731Z,84.90
2018-07-10T19:41:00.448Z,84.90
2018-07-10T19:43:29.041Z,85.00
2018-07-10T19:45:57.454Z,85.50
2018-07-10T19:50:58.922Z,85.80
2018-07-10T19:53:27.366Z,86.10
2018-07-10T19:55:55.843Z,86.40
2018-07-10T19:58:34.896Z,86.70
2018-07-10T20:04:10.568Z,87.10
2018-07-10T20:07:50.572Z,87.10
2018-07-10T20:10:29.533Z,87.40
2018-07-10T20:13:05.331Z,88.00
2018-07-10T20:16:04.636Z,88.40
2018-07-10T20:18:49.163Z,88.60
2018-07-10T20:21:27.410Z,88.80
2018-07-10T20:24:10.744Z,88.80
2018-07-10T20:26:50.216Z,89.10
2018-07-10T20:29:23.950Z,89.50
2018-07-10T20:32:01.120Z,89.80
2018-07-10T20:34:39.090Z,89.90
2018-07-10T20:37:16.224Z,90.00
2018-07-10T20:39:44.696Z,90.10
2018-07-10T20:42:14.659Z,90.20
2018-07-10T20:44:56.148Z,90.60
2018-07-10T20:47:24.618Z,90.40
2018-07-10T20:49:56.237Z,90.50
2018-07-10T20:52:36.725Z,90.60
2018-07-10T20:55:07.485Z,90.60
2018-07-10T20:58:08.550Z,90.60
2018-07-10T21:00:39.125Z,90.60
2018-07-10T21:05:43.192Z,90.70
2018-07-10T21:08:22.271Z,90.70
2018-07-10T21:10:53.046Z,90.70
2018-07-10T21:13:43.192Z,90.80
2018-07-10T21:16:19.697Z,90.70
2018-07-10T21:19:08.696Z,90.80
2018-07-10T21:21:48.151Z,90.90
2018-07-10T21:24:22.522Z,90.90
2018-07-10T21:27:00.703Z,90.90
2018-07-10T21:30:34.675Z,91.10
2018-07-10T21:33:13.138Z,91.00
2018-07-10T21:35:51.273Z,91.00
2018-07-10T21:38:31.105Z,91.00
2018-07-10T21:41:19.316Z,91.10
2018-07-10T21:43:57.821Z,91.10
2018-07-10T21:46:33.414Z,91.20
2018-07-10T21:49:18.269Z,91.10
2018-07-10T21:51:47.178Z,91.30
2018-07-10T21:54:15.879Z,91.20
2018-07-10T21:56:44.356Z,91.00
2018-07-10T21:59:13.722Z,91.00
2018-07-10T22:01:51.848Z,91.20
2018-07-10T22:04:22.763Z,91.10
2018-07-10T22:06:53.805Z,91.00
2018-07-10T22:09:24.640Z,91.00
2018-07-10T22:11:53.425Z,91.00
2018-07-10T22:14:21.879Z,91.00
2018-07-10T22:16:50.458Z,90.90
2018-07-10T22:19:26.803Z,90.90
2018-07-10T22:21:56.022Z,90.90
2018-07-10T22:24:26.326Z,91.00
2018-07-10T22:26:57.116Z,91.00
2018-07-10T22:29:30.935Z,91.10
2018-07-10T22:32:00.544Z,91.10
2018-07-10T22:34:30.315Z,91.10
2018-07-10T22:36:59.166Z,91.00
2018-07-10T22:39:27.806Z,91.00
2018-07-10T22:41:59.075Z,90.90
2018-07-10T22:46:56.867Z,91.10
2018-07-10T22:49:25.731Z,91.20
2018-07-10T22:51:56.047Z,91.00
2018-07-10T22:54:24.448Z,91.10
2018-07-10T22:56:52.826Z,91.10
2018-07-10T22:59:21.199Z,91.10
2018-07-10T23:01:49.539Z,91.20
2018-07-10T23:04:19.167Z,91.30
2018-07-10T23:06:47.971Z,91.30
2018-07-10T23:09:16.397Z,91.30
2018-07-10T23:11:44.779Z,91.40
2018-07-10T23:14:13.415Z,91.50
2018-07-10T23:16:43.502Z,91.50
2018-07-10T23:19:11.927Z,91.40
2018-07-10T23:21:41.105Z,91.40
2018-07-10T23:24:10.179Z,91.50
2018-07-10T23:26:40.959Z,91.40
2018-07-10T23:29:09.403Z,91.40
2018-07-10T23:31:39.793Z,91.50
2018-07-10T23:34:19.152Z,91.50
2018-07-10T23:36:51.017Z,91.60
2018-07-10T23:39:22.491Z,91.50
2018-07-10T23:41:56.724Z,91.60
2018-07-10T23:44:43.020Z,91.60
2018-07-10T23:47:19.179Z,91.80
2018-07-10T23:49:50.636Z,91.80
2018-07-10T23:52:28.101Z,91.90
2018-07-10T23:54:56.539Z,91.80
2018-07-10T23:57:24.947Z,91.80
2018-07-10T23:59:53.382Z,91.80
